Time;durP1;ratioP1;P1;durP2;ratioP2;P2;SDS_P1;SDS_P2;PMS_P1;PMS_P2;Temp;Humidity;BMP_temperature;BMP_pressure;BME280_temperature;BME280_humidity;BME280_pressure;Samples;Min_cycle;Max_cycle;Signal;HPM_P1;HPM_P2
2021/01/18 00:00:40;;;;;;;18.08;10.77;;;;;;;-4.96;65.00;94725.00;4128673;28;20555;-69
2021/01/18 00:02:41;;;;;;;17.65;11.18;;;;;;;-4.98;65.14;94723.41;4129561;28;20057;-71
2021/01/18 00:04:43;;;;;;;21.27;12.27;;;;;;;-4.99;64.85;94730.25;4129778;28;20588;-68
2021/01/18 00:06:45;;;;;;;16.75;11.27;;;;;;;-4.93;64.81;94734.25;4129357;28;20046;-70
2021/01/18 00:08:46;;;;;;;19.92;12.07;;;;;;;-4.86;65.24;94729.72;4123827;28;20113;-70
2021/01/18 00:10:47;;;;;;;19.42;11.30;;;;;;;-4.80;64.61;94729.47;4122973;28;20451;-70
2021/01/18 00:12:53;;;;;;;19.25;11.90;;;;;;;-4.83;64.88;94727.88;4129451;28;20058;-70
2021/01/18 00:14:54;;;;;;;18.40;11.90;;;;;;;-4.79;64.18;94731.13;4127672;28;20078;-72
2021/01/18 00:16:55;;;;;;;19.33;11.82;;;;;;;-4.80;64.50;94735.38;4130971;28;20058;-71
2021/01/18 00:18:57;;;;;;;20.08;12.32;;;;;;;-4.80;64.74;94735.38;4129213;28;20050;-70
2021/01/18 00:20:58;;;;;;;23.30;12.55;;;;;;;-4.87;65.08;94743.41;4130037;28;20046;-70
2021/01/18 00:22:59;;;;;;;19.25;12.23;;;;;;;-4.88;65.05;94740.03;4129726;28;20053;-70
2021/01/18 00:25:01;;;;;;;17.52;11.63;;;;;;;-4.91;64.93;94744.44;4129463;28;20046;-68
2021/01/18 00:27:02;;;;;;;16.52;10.85;;;;;;;-4.89;65.00;94745.19;4128878;28;20069;-70
2021/01/18 00:29:03;;;;;;;17.42;10.70;;;;;;;-4.89;65.43;94743.47;4130324;28;20061;-70
2021/01/18 00:31:05;;;;;;;20.45;12.10;;;;;;;-4.89;65.12;94743.47;4118270;28;20058;-70
2021/01/18 00:33:06;;;;;;;19.17;11.63;;;;;;;-4.89;65.12;94751.13;4122156;28;20089;-70
2021/01/18 00:35:09;;;;;;;19.48;11.88;;;;;;;-4.85;65.15;94749.28;4129013;28;20050;-70
2021/01/18 00:37:13;;;;;;;19.15;11.30;;;;;;;-4.80;65.43;94748.16;4129254;28;20435;-70
2021/01/18 00:39:15;;;;;;;18.85;12.13;;;;;;;-5.02;66.19;94750.81;4126057;28;20065;-70
2021/01/18 00:41:16;;;;;;;21.70;12.65;;;;;;;-4.94;65.89;94753.88;4124659;28;20039;-70
2021/01/18 00:43:17;;;;;;;18.98;11.82;;;;;;;-4.99;65.75;94765.16;4129266;28;20336;-69
2021/01/18 00:45:20;;;;;;;18.05;11.07;;;;;;;-4.97;65.42;94756.56;4126416;28;20082;-70
2021/01/18 00:47:22;;;;;;;18.42;12.00;;;;;;;-4.88;65.38;94760.47;4119445;28;20496;-69
2021/01/18 00:49:23;;;;;;;19.15;11.80;;;;;;;-4.99;66.22;94765.16;4128427;28;20584;-70
2021/01/18 00:51:24;;;;;;;18.92;11.93;;;;;;;-4.90;65.78;94758.84;4120373;28;20125;-80
2021/01/18 00:53:25;;;;;;;19.45;11.65;;;;;;;-4.82;65.48;94761.91;4128176;28;20051;-80
2021/01/18 00:55:27;;;;;;;22.25;11.95;;;;;;;-4.89;65.47;94760.53;4138764;28;20064;-79
2021/01/18 00:57:32;;;;;;;17.90;12.75;;;;;;;-4.94;65.95;94766.66;4131380;28;20091;-78
2021/01/18 00:59:34;;;;;;;17.65;12.10;;;;;;;-4.91;65.79;94769.97;4132755;28;20049;-80
2021/01/18 01:01:35;;;;;;;19.80;11.82;;;;;;;-4.90;66.01;94769.06;4132103;28;20416;-81
2021/01/18 01:03:37;;;;;;;20.27;12.70;;;;;;;-4.87;66.02;94763.84;4132805;28;20053;-80
2021/01/18 01:05:38;;;;;;;20.08;12.48;;;;;;;-4.85;66.09;94769.72;4118940;28;20077;-79
2021/01/18 01:07:42;;;;;;;20.33;12.98;;;;;;;-4.80;66.26;94771.16;4132371;28;20076;-81
2021/01/18 01:09:43;;;;;;;17.27;11.32;;;;;;;-4.78;65.53;94756.59;4133156;28;20302;-81
2021/01/18 01:11:45;;;;;;;20.13;11.48;;;;;;;-4.74;65.65;94763.25;4132689;28;20161;-81
2021/01/18 01:13:48;;;;;;;19.85;12.15;;;;;;;-4.77;65.09;94758.28;4132871;28;20073;-81
2021/01/18 01:15:49;;;;;;;19.15;11.68;;;;;;;-4.71;65.60;94751.22;4131035;28;20061;-83
2021/01/18 01:17:50;;;;;;;21.45;12.55;;;;;;;-4.74;65.25;94759.88;4118338;28;20058;-81
2021/01/18 01:19:52;;;;;;;17.08;11.35;;;;;;;-4.80;65.87;94760.94;4131539;28;20514;-81
2021/01/18 01:21:53;;;;;;;18.67;11.50;;;;;;;-4.91;65.42;94769.97;4118011;28;20057;-79
2021/01/18 01:23:55;;;;;;;20.35;13.00;;;;;;;-4.99;66.52;94781.34;4132594;28;20072;-79
2021/01/18 01:25:56;;;;;;;21.73;11.43;;;;;;;-4.99;66.27;94783.91;4118549;28;20080;-82
2021/01/18 01:27:58;;;;;;;19.27;11.70;;;;;;;-4.99;66.07;94777.94;4128225;28;20055;-79
2021/01/18 01:29:59;;;;;;;21.33;11.95;;;;;;;-5.03;66.12;94768.78;4104918;28;20055;-80
2021/01/18 01:32:00;;;;;;;21.40;12.95;;;;;;;-4.96;65.89;94770.16;4132786;28;20062;-79
2021/01/18 01:34:02;;;;;;;19.92;12.25;;;;;;;-5.11;66.90;94779.31;4132659;28;20052;-80
2021/01/18 01:36:04;;;;;;;18.65;11.38;;;;;;;-5.23;67.55;94777.25;4132418;28;20050;-79
2021/01/18 01:38:06;;;;;;;21.15;13.38;;;;;;;-5.19;67.78;94771.13;4130068;28;20057;-79
2021/01/18 01:40:10;;;;;;;20.40;13.45;;;;;;;-5.17;67.01;94766.78;4137703;28;20551;-83
2021/01/18 01:42:24;;;;;;;21.02;13.77;;;;;;;-5.51;68.69;94769.88;4144602;28;20048;-81
2021/01/18 01:44:25;;;;;;;24.30;14.10;;;;;;;-5.58;69.05;94774.38;4115555;28;20094;-79
2021/01/18 01:46:27;;;;;;;20.08;13.23;;;;;;;-5.45;68.21;94767.91;4122158;28;20496;-79
2021/01/18 01:48:29;;;;;;;23.75;14.00;;;;;;;-5.65;68.77;94772.97;4140010;28;20157;-80
2021/01/18 01:50:34;;;;;;;24.83;15.65;;;;;;;-5.81;69.81;94768.47;4143541;28;20053;-80
2021/01/18 01:52:37;;;;;;;25.67;14.10;;;;;;;-5.93;69.93;94766.38;4115678;28;20080;-78
2021/01/18 01:54:38;;;;;;;24.53;14.80;;;;;;;-6.16;71.09;94777.47;4111471;28;20148;-81
2021/01/18 01:56:39;;;;;;;24.83;13.93;;;;;;;-6.30;71.29;94772.91;4131242;28;20285;-81
2021/01/18 01:58:41;;;;;;;27.52;15.40;;;;;;;-6.30;71.97;94772.91;4122981;28;20053;-80
2021/01/18 02:00:42;;;;;;;25.00;14.88;;;;;;;-6.43;72.39;94774.22;4133875;28;20463;-79
2021/01/18 02:02:43;;;;;;;23.55;14.98;;;;;;;-6.15;71.83;94768.97;4137735;28;20431;-78
2021/01/18 02:04:47;;;;;;;21.65;13.68;;;;;;;-5.92;70.33;94772.31;4137664;28;20050;-78
2021/01/18 02:06:48;;;;;;;24.20;12.75;;;;;;;-5.67;68.89;94777.31;4136889;28;20113;-81
2021/01/18 02:08:50;;;;;;;21.42;12.98;;;;;;;-5.52;68.27;94778.44;4135575;28;20097;-80
2021/01/18 02:10:51;;;;;;;21.58;13.35;;;;;;;-5.41;68.71;94774.53;4116056;28;20086;-79
2021/01/18 02:12:53;;;;;;;20.17;12.10;;;;;;;-5.37;67.46;94780.38;4125135;28;20053;-79
2021/01/18 02:15:17;;;;;;;20.15;11.90;;;;;;;-5.26;67.53;94772.28;4132629;28;20062;-80
2021/01/18 02:17:30;;;;;;;19.75;12.15;;;;;;;-5.17;66.85;94777.00;4110632;28;20051;-79
2021/01/18 02:19:40;;;;;;;18.02;11.32;;;;;;;-5.19;66.13;94789.00;4134144;28;20068;-80
2021/01/18 02:22:35;;;;;;;17.73;10.77;;;;;;;-5.14;66.14;94787.09;4134892;28;20054;-79
2021/01/18 02:25:01;;;;;;;19.23;11.88;;;;;;;-5.13;66.57;94793.84;4092792;29;20047;-80
2021/01/18 02:27:33;;;;;;;19.35;11.23;;;;;;;-5.12;66.12;94795.50;4121697;28;20055;-80
2021/01/18 02:29:54;;;;;;;18.35;10.85;;;;;;;-5.09;65.26;94785.19;4133941;28;20043;-81
2021/01/18 02:32:13;;;;;;;17.75;11.00;;;;;;;-5.09;65.91;94779.25;4122900;28;20062;-70
2021/01/18 02:34:26;;;;;;;19.17;12.13;;;;;;;-5.08;64.71;94779.16;4129128;28;20105;-70
2021/01/18 02:36:40;;;;;;;17.00;10.88;;;;;;;-5.29;65.80;94782.59;4118354;28;20051;-69
2021/01/18 02:39:08;;;;;;;19.38;10.88;;;;;;;-5.27;65.77;94779.09;4122097;28;20128;-70
2021/01/18 02:41:31;;;;;;;19.17;11.65;;;;;;;-5.24;65.26;94785.81;4131402;28;20050;-71
2021/01/18 02:43:36;;;;;;;19.67;12.27;;;;;;;-5.20;65.59;94774.56;4123926;28;20050;-71
2021/01/18 02:45:37;;;;;;;16.67;10.55;;;;;;;-5.11;64.97;94776.75;4129516;28;20077;-70
2021/01/18 02:47:40;;;;;;;19.38;11.57;;;;;;;-5.08;65.42;94770.69;4114400;28;20082;-69
2021/01/18 02:49:42;;;;;;;19.13;12.13;;;;;;;-5.17;65.32;94777.81;4122078;28;20109;-68
2021/01/18 02:51:47;;;;;;;20.33;11.13;;;;;;;-5.16;65.79;94776.94;4128962;28;20607;-70
2021/01/18 02:53:58;;;;;;;19.60;11.25;;;;;;;-5.12;65.42;94781.91;4129934;28;20058;-70
2021/01/18 02:56:00;;;;;;;22.83;12.98;;;;;;;-5.64;66.72;94788.22;4113810;28;20062;-71
2021/01/18 02:58:02;;;;;;;17.52;11.57;;;;;;;-5.86;67.80;94783.09;4128385;28;20050;-70
2021/01/18 03:00:05;;;;;;;17.75;11.68;;;;;;;-5.86;68.52;94787.38;4130121;28;20112;-69
2021/01/18 03:02:11;;;;;;;21.80;12.38;;;;;;;-5.73;67.41;94785.19;4130585;28;20042;-69
2021/01/18 03:04:28;;;;;;;20.10;12.43;;;;;;;-5.72;68.19;94789.41;4130167;28;20084;-70
2021/01/18 03:06:44;;;;;;;22.25;12.93;;;;;;;-5.81;68.30;94793.13;4129770;28;20061;-69
2021/01/18 03:08:55;;;;;;;23.42;12.93;;;;;;;-5.63;68.13;94791.63;4127657;28;20054;-68
2021/01/18 03:11:09;;;;;;;20.17;13.02;;;;;;;-5.71;68.05;94785.97;4121909;28;20054;-69
2021/01/18 03:13:19;;;;;;;20.63;12.57;;;;;;;-5.54;67.47;94788.69;4118407;28;20054;-80
2021/01/18 03:15:23;;;;;;;22.38;13.00;;;;;;;-5.39;66.84;94793.19;4120247;28;20046;-81
2021/01/18 03:17:26;;;;;;;22.83;13.27;;;;;;;-5.52;67.65;94791.19;4134307;28;20050;-82
2021/01/18 03:19:41;;;;;;;;;;;;;;;-5.37;67.91;94796.50;4134240;28;20061;-79
2021/01/18 03:21:46;;;;;;;20.55;12.68;;;;;;;-5.51;68.22;94792.84;4135428;28;19925;-80
2021/01/18 03:23:48;;;;;;;22.95;13.90;;;;;;;-5.43;68.47;94801.84;4133899;28;20054;-82
2021/01/18 03:25:51;;;;;;;21.58;12.90;;;;;;;-5.54;68.77;94798.09;4134060;28;20137;-79
2021/01/18 03:27:57;;;;;;;23.10;13.75;;;;;;;-5.47;68.69;94799.50;4133600;28;20140;-70
2021/01/18 03:29:58;;;;;;;22.35;12.85;;;;;;;-5.36;67.26;94793.03;4127069;28;20054;-70
2021/01/18 03:31:59;;;;;;;22.08;12.95;;;;;;;-5.30;67.21;94798.81;4131362;28;20049;-71
2021/01/18 03:34:00;;;;;;;26.52;15.07;;;;;;;-5.35;67.35;94788.78;4129522;28;20677;-70
2021/01/18 03:36:02;;;;;;;27.00;14.80;;;;;;;-5.65;68.38;94799.31;4125549;28;20058;-70
2021/01/18 03:38:04;;;;;;;25.52;14.15;;;;;;;-6.15;69.93;94796.16;4122201;28;20073;-70
2021/01/18 03:40:05;;;;;;;22.48;14.18;;;;;;;-6.02;70.68;94799.94;4129616;28;20080;-69
2021/01/18 03:42:10;;;;;;;24.33;14.68;;;;;;;-5.84;70.13;94796.63;4122691;28;20050;-70
2021/01/18 03:44:11;;;;;;;26.35;14.95;;;;;;;-6.08;70.70;94797.59;4127411;28;20573;-69
2021/01/18 03:46:13;;;;;;;25.05;14.77;;;;;;;-5.90;70.17;94794.31;4128290;28;20046;-71
2021/01/18 03:48:15;;;;;;;26.52;15.02;;;;;;;-5.78;69.33;94791.31;4131161;28;20054;-69
2021/01/18 03:50:17;;;;;;;27.05;15.88;;;;;;;-5.68;69.21;94798.59;4129350;28;20526;-71
2021/01/18 03:52:18;;;;;;;25.15;15.40;;;;;;;-5.57;68.96;94809.22;4129395;28;20052;-70
2021/01/18 03:54:19;;;;;;;27.17;16.10;;;;;;;-5.64;68.69;94802.69;4115359;28;20074;-69
2021/01/18 03:56:21;;;;;;;27.00;16.45;;;;;;;-5.56;68.06;94798.13;4128891;28;20054;-70
2021/01/18 03:58:22;;;;;;;28.35;17.13;;;;;;;-5.61;68.59;94798.31;4128572;28;20046;-70
2021/01/18 04:00:25;;;;;;;29.77;17.95;;;;;;;-5.51;68.60;94810.72;4117430;28;20626;-70
2021/01/18 04:02:26;;;;;;;25.45;16.10;;;;;;;-5.45;66.99;94808.75;4125081;28;20096;-69
2021/01/18 04:04:28;;;;;;;25.05;15.55;;;;;;;-5.51;67.79;94814.09;4129405;28;20054;-69
2021/01/18 04:06:39;;;;;;;26.70;16.10;;;;;;;-5.68;67.63;94806.25;4129651;28;20479;-68
2021/01/18 04:08:40;;;;;;;25.02;15.85;;;;;;;-5.61;67.28;94812.81;4128355;28;20418;-70
2021/01/18 04:10:41;;;;;;;23.90;15.38;;;;;;;-5.65;67.50;94821.47;4128858;28;20112;-69
2021/01/18 04:12:44;;;;;;;24.73;15.18;;;;;;;-5.70;66.63;94818.25;4123566;28;20050;-69
2021/01/18 04:14:45;;;;;;;23.33;13.85;;;;;;;-5.63;67.35;94812.03;4127181;28;20061;-71
2021/01/18 04:16:46;;;;;;;24.10;14.23;;;;;;;-5.61;66.54;94815.34;4129327;28;20491;-71
2021/01/18 04:18:49;;;;;;;24.27;14.38;;;;;;;-5.59;65.24;94816.13;4129949;28;20057;-71
2021/01/18 04:20:50;;;;;;;23.30;13.77;;;;;;;-5.95;66.06;94819.22;4108706;28;20051;-69
2021/01/18 04:22:53;;;;;;;26.23;15.82;;;;;;;-5.84;66.11;94826.44;4124402;28;20061;-71
2021/01/18 04:24:54;;;;;;;25.13;14.25;;;;;;;-5.79;65.33;94832.19;4125085;28;20050;-69
2021/01/18 04:26:55;;;;;;;23.25;14.48;;;;;;;-5.77;64.93;94821.03;4129025;28;20062;-69
2021/01/18 04:28:56;;;;;;;26.42;14.07;;;;;;;-5.80;65.88;94827.97;4130144;28;20062;-71
2021/01/18 04:30:58;;;;;;;23.13;13.90;;;;;;;-5.77;65.55;94828.69;4125892;28;20575;-69
2021/01/18 04:33:04;;;;;;;22.58;13.30;;;;;;;-5.71;65.57;94827.63;4123307;28;20054;-70
2021/01/18 04:35:06;;;;;;;26.98;14.35;;;;;;;-5.63;65.39;94832.44;4129883;28;20061;-70
2021/01/18 04:37:08;;;;;;;24.42;14.30;;;;;;;-5.63;64.37;94828.16;4127921;28;20054;-69
2021/01/18 04:39:10;;;;;;;22.20;14.07;;;;;;;-5.57;64.08;94833.03;4127733;28;20109;-70
2021/01/18 04:41:11;;;;;;;23.30;14.32;;;;;;;-5.76;64.16;94835.47;4128950;28;20050;-69
2021/01/18 04:43:14;;;;;;;21.17;13.32;;;;;;;-5.68;63.88;94837.69;4127610;28;20058;-70
2021/01/18 04:45:17;;;;;;;24.35;13.95;;;;;;;-5.58;64.25;94833.91;4127607;28;20054;-69
2021/01/18 04:47:18;;;;;;;25.85;13.77;;;;;;;-5.77;64.48;94844.00;4129182;28;20522;-69
2021/01/18 04:49:20;;;;;;;28.95;13.25;;;;;;;-6.07;65.67;94840.88;4127167;28;20500;-68
2021/01/18 04:51:23;;;;;;;21.45;14.07;;;;;;;-5.94;65.34;94843.78;4127879;28;20507;-69
2021/01/18 04:53:25;;;;;;;25.80;14.32;;;;;;;-6.06;65.36;94846.84;4127810;28;20050;-69
2021/01/18 04:55:36;;;;;;;24.05;13.50;;;;;;;-5.90;64.98;94847.06;4127950;28;20073;-70
2021/01/18 04:57:43;;;;;;;26.48;14.82;;;;;;;-5.74;64.35;94847.31;4130201;28;20081;-69
2021/01/18 04:59:48;;;;;;;23.70;14.27;;;;;;;-5.62;63.73;94842.56;4115358;28;20126;-70
2021/01/18 05:01:51;;;;;;;23.30;13.50;;;;;;;-5.59;63.75;94849.31;4110195;28;20141;-70
2021/01/18 05:04:02;;;;;;;25.58;14.85;;;;;;;-5.55;63.40;94853.38;4116945;28;20054;-69
2021/01/18 05:06:21;;;;;;;27.17;15.00;;;;;;;-5.51;63.00;94849.81;4129068;28;20507;-69
2021/01/18 05:08:59;;;;;;;22.15;14.55;;;;;;;-5.55;62.71;94853.38;4125608;28;20482;-80
2021/01/18 05:11:01;;;;;;;25.65;14.18;;;;;;;-5.68;62.69;94849.63;4132456;28;20050;-81
2021/01/18 05:13:03;;;;;;;24.63;13.30;;;;;;;-5.64;62.43;94852.00;4135944;28;20046;-79
2021/01/18 05:15:06;;;;;;;23.23;13.60;;;;;;;-5.62;63.47;94851.97;4120010;28;20061;-81
2021/01/18 05:17:10;;;;;;;23.65;12.88;;;;;;;-5.62;63.12;94852.78;4136460;28;20113;-80
2021/01/18 05:19:11;;;;;;;;;;;;;;;-5.49;63.15;94858.25;4136087;28;20046;-79
2021/01/18 05:21:13;;;;;;;22.25;12.55;;;;;;;-5.43;62.38;94858.03;4131206;28;20000;-81
2021/01/18 05:23:14;;;;;;;27.45;14.02;;;;;;;-5.44;62.18;94860.63;4133770;28;20503;-81
2021/01/18 05:25:17;;;;;;;21.48;13.70;;;;;;;-5.40;61.95;94865.59;4117806;28;20038;-83
2021/01/18 05:27:18;;;;;;;23.55;12.95;;;;;;;-5.43;61.85;94867.41;4133091;28;20054;-80
2021/01/18 05:29:28;;;;;;;21.70;13.73;;;;;;;-5.58;61.74;94873.94;4134086;28;20385;-79
2021/01/18 05:31:34;;;;;;;24.98;14.95;;;;;;;-5.66;62.68;94871.66;4134337;28;20057;-81
2021/01/18 05:33:39;;;;;;;27.48;16.98;;;;;;;-5.68;63.04;94867.50;4136008;28;20061;-79
2021/01/18 05:35:50;;;;;;;26.75;14.77;;;;;;;-5.55;61.88;94876.34;4134679;28;20050;-81
2021/01/18 05:38:11;;;;;;;25.20;14.05;;;;;;;-5.63;62.09;94870.72;4109227;28;20058;-81
2021/01/18 05:40:20;;;;;;;24.55;14.60;;;;;;;-5.69;62.58;94871.78;4112418;28;20058;-80
2021/01/18 05:42:22;;;;;;;23.33;13.68;;;;;;;-5.71;62.81;94872.72;4119373;28;20055;-82
2021/01/18 05:44:35;;;;;;;20.83;13.13;;;;;;;-5.64;62.45;94877.53;4131987;28;20129;-81
2021/01/18 05:46:39;;;;;;;22.58;13.27;;;;;;;-5.66;62.83;94886.16;4136795;28;20056;-82
2021/01/18 05:48:40;;;;;;;20.85;13.05;;;;;;;-5.60;62.76;94879.09;4135775;28;20046;-80
2021/01/18 05:50:42;;;;;;;21.23;12.45;;;;;;;-5.56;62.10;94887.47;4134911;28;20054;-84
2021/01/18 05:52:43;;;;;;;21.55;13.63;;;;;;;-5.47;62.32;94882.00;4137783;28;20073;-82
2021/01/18 05:54:45;;;;;;;19.92;11.60;;;;;;;-5.62;62.49;94887.69;4137856;28;20600;-81
2021/01/18 05:56:46;;;;;;;19.65;11.85;;;;;;;-5.56;62.09;94885.75;4133806;28;20070;-79
2021/01/18 05:58:48;;;;;;;19.13;12.50;;;;;;;-5.61;62.50;94881.72;4142460;28;20049;-81
2021/01/18 06:00:54;;;;;;;20.85;12.43;;;;;;;-5.55;61.80;94884.00;4138009;28;20507;-80
2021/01/18 06:02:56;;;;;;;24.10;12.77;;;;;;;-5.53;62.27;94891.63;4140599;28;20518;-81
2021/01/18 06:05:06;;;;;;;22.92;12.52;;;;;;;-5.48;61.71;94887.19;4122372;28;20061;-81
2021/01/18 06:07:07;;;;;;;24.25;12.45;;;;;;;-5.48;61.43;94895.69;4138660;28;20124;-81
2021/01/18 06:09:08;;;;;;;21.90;12.02;;;;;;;-5.40;61.44;94903.03;4139466;28;20228;-81
2021/01/18 06:11:10;;;;;;;24.52;13.02;;;;;;;-5.62;62.26;94906.38;4134745;28;20058;-82
2021/01/18 06:13:26;;;;;;;21.77;12.02;;;;;;;-5.67;62.50;94897.25;4139661;28;20104;-83
2021/01/18 06:15:32;;;;;;;23.00;12.90;;;;;;;-5.59;61.77;94897.81;4137604;28;20058;-82
2021/01/18 06:17:36;;;;;;;22.77;11.85;;;;;;;-5.56;61.85;94906.16;4122121;28;20515;-83
2021/01/18 06:19:38;;;;;;;20.42;12.73;;;;;;;-5.51;61.20;94907.72;4125762;28;20050;-81
2021/01/18 06:21:41;;;;;;;19.48;11.82;;;;;;;-5.49;60.80;94901.66;4132153;28;20050;-81
2021/01/18 06:23:42;;;;;;;17.30;11.30;;;;;;;-5.62;60.30;94906.38;4141152;28;20507;-81
2021/01/18 06:25:48;;;;;;;17.52;10.02;;;;;;;-5.51;60.29;94905.97;4138442;28;20078;-85
2021/01/18 06:27:52;;;;;;;18.60;11.07;;;;;;;-5.50;59.52;94900.00;4138463;28;20050;-81
2021/01/18 06:29:53;;;;;;;21.15;11.10;;;;;;;-5.40;60.30;94903.88;4137287;28;20057;-84
2021/01/18 06:31:54;;;;;;;21.95;12.05;;;;;;;-5.29;59.56;94900.06;4121879;28;20047;-82
2021/01/18 06:34:01;;;;;;;21.33;11.52;;;;;;;-5.31;60.45;94900.16;4137987;28;20499;-83
2021/01/18 06:36:19;;;;;;;21.35;13.07;;;;;;;-5.36;60.31;94904.56;4137609;28;20057;-82
2021/01/18 06:38:21;;;;;;;18.40;11.32;;;;;;;-5.24;60.68;94901.56;4126165;28;20378;-70
2021/01/18 06:40:29;;;;;;;23.17;12.68;;;;;;;-5.25;60.64;94912.69;4122193;28;20053;-70
2021/01/18 06:42:31;;;;;;;17.88;11.13;;;;;;;-5.13;60.11;94911.34;4131589;28;20046;-71
2021/01/18 06:44:36;;;;;;;21.73;12.70;;;;;;;-4.90;59.29;94918.13;4133157;28;20050;-71
2021/01/18 06:46:38;;;;;;;22.48;11.45;;;;;;;-4.84;58.99;94922.13;4132893;28;20088;-74
2021/01/18 06:48:41;;;;;;;22.80;12.20;;;;;;;-5.00;59.32;94932.97;4133845;28;20468;-71
2021/01/18 06:50:42;;;;;;;56.50;13.25;;;;;;;-5.02;59.84;94924.53;4134127;28;20061;-71
2021/01/18 06:52:46;;;;;;;21.65;12.65;;;;;;;-4.95;59.56;94933.66;4132473;28;20384;-71
2021/01/18 06:54:52;;;;;;;24.80;12.32;;;;;;;-4.95;59.70;94923.41;4134050;28;20058;-72
2021/01/18 06:57:02;;;;;;;24.63;12.85;;;;;;;-4.83;59.17;94932.31;4132697;28;20113;-71
2021/01/18 06:59:15;;;;;;;21.95;12.80;;;;;;;-4.75;58.54;94939.69;4116873;28;20463;-71
2021/01/18 07:01:27;;;;;;;16.17;10.02;;;;;;;-4.86;57.13;94935.00;4126494;28;20068;-70
2021/01/18 07:03:40;;;;;;;20.70;11.07;;;;;;;-4.88;57.34;94941.03;4116759;28;20078;-71
2021/01/18 07:05:48;;;;;;;22.38;10.57;;;;;;;-4.92;56.71;94942.09;4114354;28;20197;-72
2021/01/18 07:07:56;;;;;;;16.88;10.57;;;;;;;-4.80;55.87;94941.56;4121318;28;20373;-71
2021/01/18 07:09:59;;;;;;;20.30;11.35;;;;;;;-4.76;55.73;94946.50;4114400;28;20126;-71
2021/01/18 07:12:01;;;;;;;19.90;9.90;;;;;;;-4.75;54.74;94947.34;4128611;28;20715;-72
2021/01/18 07:14:05;;;;;;;13.65;8.45;;;;;;;-4.83;53.89;94946.81;4127555;28;20042;-71
2021/01/18 07:16:07;;;;;;;;;;;;;;;-4.73;53.58;94955.78;4118026;28;20061;-71
2021/01/18 07:18:10;;;;;;;12.77;7.28;;;;;;;-4.74;53.11;94952.38;4130204;28;19921;-70
2021/01/18 07:20:15;;;;;;;14.63;8.75;;;;;;;-4.78;53.18;94958.50;4131187;28;20058;-74
2021/01/18 07:22:53;;;;;;;14.45;8.13;;;;;;;-4.66;53.12;94952.09;4118707;28;20050;-72
2021/01/18 07:25:03;;;;;;;15.07;8.68;;;;;;;-4.67;52.81;94947.84;4128728;28;20546;-72
2021/01/18 07:27:06;;;;;;;15.90;8.55;;;;;;;-4.70;53.26;94949.72;4131069;28;20058;-71
2021/01/18 07:29:08;;;;;;;13.52;8.48;;;;;;;-4.64;53.26;94950.31;4127015;28;20058;-72
2021/01/18 07:31:09;;;;;;;15.32;8.45;;;;;;;-4.48;53.09;94952.25;4126236;28;20050;-72
2021/01/18 07:33:15;;;;;;;14.73;8.52;;;;;;;-4.84;52.85;94963.03;4129181;28;20046;-70
2021/01/18 07:35:21;;;;;;;14.13;8.25;;;;;;;-4.79;52.65;94963.69;4128122;28;20512;-71
2021/01/18 07:37:24;;;;;;;11.60;7.70;;;;;;;-4.78;52.93;94967.91;4129633;28;20101;-72
2021/01/18 07:39:40;;;;;;;15.98;8.38;;;;;;;-4.92;53.40;94976.13;4128861;28;20066;-71
2021/01/18 07:41:41;;;;;;;14.27;8.20;;;;;;;-5.39;54.07;94982.13;4131147;28;20060;-73
2021/01/18 07:43:48;;;;;;;13.57;9.10;;;;;;;-5.25;54.51;94978.22;4127442;28;20517;-73
2021/01/18 07:45:55;;;;;;;16.02;8.02;;;;;;;-5.26;54.33;94972.28;4127343;28;20085;-71
2021/01/18 07:47:57;;;;;;;14.93;8.50;;;;;;;-5.27;54.49;94968.09;4113148;28;20101;-73
2021/01/18 07:49:58;;;;;;;16.42;8.88;;;;;;;-5.20;53.99;94987.38;4129232;28;20054;-72
2021/01/18 07:52:25;;;;;;;14.60;9.35;;;;;;;-5.26;54.79;94976.56;4113282;28;20137;-71
2021/01/18 07:54:36;;;;;;;17.52;8.60;;;;;;;-4.98;54.46;94982.28;4126554;28;20059;-72
2021/01/18 07:56:41;;;;;;;14.55;8.60;;;;;;;-4.84;54.50;94978.38;4131433;28;20057;-72
2021/01/18 07:58:43;;;;;;;14.48;8.43;;;;;;;-5.04;54.42;94982.53;4126197;28;20050;-86
2021/01/18 08:00:46;;;;;;;14.65;7.32;;;;;;;-5.48;55.45;94990.13;4136517;28;20065;-82
2021/01/18 08:02:49;;;;;;;17.08;8.32;;;;;;;-5.98;57.27;95003.81;4119719;28;20114;-86
2021/01/18 08:04:54;;;;;;;14.70;8.23;;;;;;;-5.82;57.64;94988.78;4127568;28;20050;-83
2021/01/18 08:07:06;;;;;;;18.80;9.40;;;;;;;-5.49;57.19;94996.09;4145579;28;20049;-83
2021/01/18 08:09:25;;;;;;;14.68;8.23;;;;;;;-5.31;56.16;95001.44;4145294;28;20050;-83
2021/01/18 08:11:26;;;;;;;19.52;9.35;;;;;;;-5.65;56.33;94997.56;4136075;28;20073;-82
2021/01/18 08:13:40;;;;;;;18.38;8.93;;;;;;;-5.40;56.72;95008.56;4136197;28;20038;-83
2021/01/18 08:15:42;;;;;;;15.25;7.97;;;;;;;-5.62;56.61;94994.88;4135241;28;20133;-83
2021/01/18 08:17:44;;;;;;;14.02;7.97;;;;;;;-5.51;56.36;94990.22;4118935;28;20373;-83
2021/01/18 08:20:07;;;;;;;15.68;8.75;;;;;;;-5.45;55.95;94997.66;4133072;28;20082;-83
2021/01/18 08:22:09;;;;;;;14.98;7.25;;;;;;;-5.66;56.78;95003.53;4125561;28;20046;-84
2021/01/18 08:24:23;;;;;;;14.55;8.07;;;;;;;-5.96;57.68;95011.41;4135433;28;20159;-84
2021/01/18 08:26:24;;;;;;;16.80;8.18;;;;;;;-5.95;57.17;94999.50;4147810;28;20109;-82
2021/01/18 08:28:25;;;;;;;12.75;7.25;;;;;;;-5.93;58.41;94995.16;4121162;28;20046;-83
2021/01/18 08:30:34;;;;;;;12.65;7.40;;;;;;;-5.78;56.94;94992.88;4123281;28;20043;-81
2021/01/18 08:32:38;;;;;;;15.70;6.88;;;;;;;-5.71;55.51;94985.03;4136246;28;20502;-83
2021/01/18 08:34:40;;;;;;;13.85;8.27;;;;;;;-5.42;55.30;94992.47;4120995;28;20535;-83
2021/01/18 08:36:48;;;;;;;18.60;8.57;;;;;;;-5.84;55.49;94993.09;4129589;28;20050;-83
2021/01/18 08:38:50;;;;;;;23.20;10.10;;;;;;;-5.55;54.88;95003.97;4130053;28;20148;-85
2021/01/18 08:40:59;;;;;;;16.15;7.90;;;;;;;-5.27;54.63;94990.22;4129973;28;20086;-86
2021/01/18 08:43:01;;;;;;;13.20;6.40;;;;;;;-4.91;52.42;95007.63;4128256;28;20050;-84
2021/01/18 08:45:22;;;;;;;14.30;7.05;;;;;;;-5.34;53.17;94994.72;4132769;28;20055;-84
2021/01/18 08:47:59;;;;;;;11.23;5.90;;;;;;;-5.17;53.46;94991.53;4135248;28;20058;-85
2021/01/18 08:50:16;;;;;;;14.30;7.40;;;;;;;-4.98;52.70;94995.06;4119698;28;20046;-84
2021/01/18 08:52:18;;;;;;;10.38;6.07;;;;;;;-4.95;51.79;94984.75;4134251;28;20104;-84
2021/01/18 08:54:31;;;;;;;9.70;5.78;;;;;;;-4.74;51.61;94989.91;4133560;28;20061;-82
2021/01/18 08:56:36;;;;;;;12.73;7.05;;;;;;;-4.55;51.40;94983.16;4122567;28;20090;-86
2021/01/18 08:58:44;;;;;;;11.50;6.57;;;;;;;-4.50;51.09;94997.50;4140977;28;20046;-83
2021/01/18 09:00:47;;;;;;;17.00;8.73;;;;;;;-4.78;51.24;94967.91;4138528;28;20443;-83
2021/01/18 09:02:49;;;;;;;12.52;6.95;;;;;;;-5.54;52.42;94992.06;4134391;28;20125;-85
2021/01/18 09:04:50;;;;;;;11.18;5.35;;;;;;;-5.66;53.73;94996.72;4119019;28;20102;-85
2021/01/18 09:06:52;;;;;;;14.75;7.32;;;;;;;-5.39;52.74;95006.84;4144658;28;20076;-83
2021/01/18 09:09:07;;;;;;;13.63;7.15;;;;;;;-5.80;54.64;94996.38;4134003;28;20054;-85
2021/01/18 09:11:10;;;;;;;10.48;5.97;;;;;;;-5.27;53.46;95005.53;4144075;28;20052;-84
2021/01/18 09:13:12;;;;;;;15.18;6.47;;;;;;;-4.99;51.98;94990.00;4136004;28;20133;-84
2021/01/18 09:15:16;;;;;;;9.60;5.68;;;;;;;-4.49;50.66;94988.94;4133796;28;20065;-85
2021/01/18 09:17:24;;;;;;;10.02;5.78;;;;;;;-4.18;49.09;94975.72;4123474;28;20062;-85
2021/01/18 09:19:26;;;;;;;11.70;6.00;;;;;;;-3.91;49.22;94978.84;4140203;28;20128;-86
2021/01/18 09:21:28;;;;;;;11.07;5.95;;;;;;;-3.74;48.58;94984.09;4136819;28;20046;-84
2021/01/18 09:23:30;;;;;;;12.38;6.40;;;;;;;-3.51;47.87;94988.22;4132145;28;20493;-85
2021/01/18 09:25:31;;;;;;;9.18;5.65;;;;;;;-3.23;47.45;94981.84;4132931;28;20054;-83
2021/01/18 09:27:34;;;;;;;19.10;7.55;;;;;;;-4.07;49.03;94996.56;4116237;28;20152;-84
2021/01/18 09:29:35;;;;;;;13.50;7.47;;;;;;;-4.95;53.27;94982.19;4117498;28;20058;-85
2021/01/18 09:31:36;;;;;;;14.93;8.57;;;;;;;-4.81;54.04;94991.88;4132909;28;20070;-86
2021/01/18 09:33:41;;;;;;;18.38;8.80;;;;;;;-5.15;55.20;94980.38;4144801;28;20056;-83
2021/01/18 09:35:44;;;;;;;12.32;8.40;;;;;;;-5.24;55.36;94993.50;4140151;28;20058;-85
2021/01/18 09:37:47;;;;;;;14.15;7.32;;;;;;;-5.25;55.76;94979.09;4118154;28;20118;-86